sensor_id;sensor_type;location;lat;lon;timestamp;pressure;altitude;pressure_sealevel;temperature;humidity
53619;BME280;68717;53.040;18.488;2023-12-07T00:00:12;101662.25;;;-0.71;100.00
53619;BME280;68717;53.040;18.488;2023-12-07T00:00:33;101669.28;;;-0.72;100.00
53619;BME280;68717;53.040;18.488;2023-12-07T00:01:06;101673.66;;;-0.72;100.00
53619;BME280;68717;53.040;18.488;2023-12-07T00:01:21;101672.81;;;-0.74;100.00
53619;BME280;68717;53.040;18.488;2023-12-07T00:01:34;101669.34;;;-0.75;100.00
53619;BME280;68717;53.040;18.488;2023-12-07T00:01:47;101664.13;;;-0.76;100.00
53619;BME280;68717;53.040;18.488;2023-12-07T00:02:00;101671.13;;;-0.77;100.00
53619;BME280;68717;53.040;18.488;2023-12-07T00:02:13;101671.13;;;-0.77;100.00
53619;BME280;68717;53.040;18.488;2023-12-07T00:02:27;101676.41;;;-0.77;100.00
53619;BME280;68717;53.040;18.488;2023-12-07T00:02:40;101675.53;;;-0.77;100.00
53619;BME280;68717;53.040;18.488;2023-12-07T00:02:53;101674.69;;;-0.78;100.00
53619;BME280;68717;53.040;18.488;2023-12-07T00:03:06;101674.69;;;-0.78;100.00
53619;BME280;68717;53.040;18.488;2023-12-07T00:03:21;101674.69;;;-0.78;100.00
53619;BME280;68717;53.040;18.488;2023-12-07T00:03:34;101672.06;;;-0.78;100.00
53619;BME280;68717;53.040;18.488;2023-12-07T00:03:47;101669.44;;;-0.78;100.00
53619;BME280;68717;53.040;18.488;2023-12-07T00:03:59;101674.69;;;-0.78;100.00
53619;BME280;68717;53.040;18.488;2023-12-07T00:04:12;101672.94;;;-0.79;100.00
53619;BME280;68717;53.040;18.488;2023-12-07T00:04:25;101670.31;;;-0.79;100.00
53619;BME280;68717;53.040;18.488;2023-12-07T00:04:38;101677.34;;;-0.79;100.00
53619;BME280;68717;53.040;18.488;2023-12-07T00:04:52;101672.94;;;-0.79;100.00
53619;BME280;68717;53.040;18.488;2023-12-07T00:05:05;101683.47;;;-0.79;100.00
53619;BME280;68717;53.040;18.488;2023-12-07T00:05:18;101677.34;;;-0.79;100.00
53619;BME280;68717;53.040;18.488;2023-12-07T00:05:30;101679.97;;;-0.78;100.00
53619;BME280;68717;53.040;18.488;2023-12-07T00:05:43;101675.56;;;-0.79;100.00
53619;BME280;68717;53.040;18.488;2023-12-07T00:05:56;101678.22;;;-0.79;100.00
53619;BME280;68717;53.040;18.488;2023-12-07T00:06:09;101675.56;;;-0.79;100.00
53619;BME280;68717;53.040;18.488;2023-12-07T00:06:22;101674.69;;;-0.78;100.00
53619;BME280;68717;53.040;18.488;2023-12-07T00:06:35;101674.66;;;-0.76;100.00
53619;BME280;68717;53.040;18.488;2023-12-07T00:06:49;101672.03;;;-0.76;100.00
53619;BME280;68717;53.040;18.488;2023-12-07T00:07:04;101679.88;;;-0.75;100.00
53619;BME280;68717;53.040;18.488;2023-12-07T00:07:16;101673.75;;;-0.75;100.00
53619;BME280;68717;53.040;18.488;2023-12-07T00:07:29;101676.38;;;-0.75;100.00
53619;BME280;68717;53.040;18.488;2023-12-07T00:07:42;101677.19;;;-0.72;100.00
53619;BME280;68717;53.040;18.488;2023-12-07T00:07:55;101675.44;;;-0.73;100.00
53619;BME280;68717;53.040;18.488;2023-12-07T00:08:09;101672.78;;;-0.73;100.00
53619;BME280;68717;53.040;18.488;2023-12-07T00:08:22;101677.19;;;-0.72;100.00
53619;BME280;68717;53.040;18.488;2023-12-07T00:08:34;101678.03;;;-0.71;100.00
53619;BME280;68717;53.040;18.488;2023-12-07T00:08:48;101685.06;;;-0.72;100.00
53619;BME280;68717;53.040;18.488;2023-12-07T00:09:01;101672.78;;;-0.73;100.00
53619;BME280;68717;53.040;18.488;2023-12-07T00:09:14;101678.06;;;-0.73;100.00
53619;BME280;68717;53.040;18.488;2023-12-07T00:09:27;101676.34;;;-0.74;100.00
53619;BME280;68717;53.040;18.488;2023-12-07T00:09:40;101676.34;;;-0.74;100.00
53619;BME280;68717;53.040;18.488;2023-12-07T00:09:53;101686.81;;;-0.72;100.00
53619;BME280;68717;53.040;18.488;2023-12-07T00:10:06;101684.19;;;-0.72;100.00
53619;BME280;68717;53.040;18.488;2023-12-07T00:10:19;101677.19;;;-0.72;100.00
53619;BME280;68717;53.040;18.488;2023-12-07T00:10:41;101684.25;;;-0.74;100.00
53619;BME280;68717;53.040;18.488;2023-12-07T00:10:54;101686.00;;;-0.74;100.00
53619;BME280;68717;53.040;18.488;2023-12-07T00:11:06;101674.59;;;-0.75;100.00
53619;BME280;68717;53.040;18.488;2023-12-07T00:11:19;101678.97;;;-0.74;100.00
53619;BME280;68717;53.040;18.488;2023-12-07T00:11:34;101678.97;;;-0.74;100.00
53619;BME280;68717;53.040;18.488;2023-12-07T00:11:49;101683.31;;;-0.71;100.00
53619;BME280;68717;53.040;18.488;2023-12-07T00:12:01;101683.34;;;-0.73;100.00
53619;BME280;68717;53.040;18.488;2023-12-07T00:12:15;101678.91;;;-0.72;100.00
53619;BME280;68717;53.040;18.488;2023-12-07T00:12:28;101678.97;;;-0.74;100.00
53619;BME280;68717;53.040;18.488;2023-12-07T00:12:43;101674.56;;;-0.73;100.00
53619;BME280;68717;53.040;18.488;2023-12-07T00:12:56;101671.09;;;-0.74;100.00
53619;BME280;68717;53.040;18.488;2023-12-07T00:13:09;101676.25;;;-0.71;100.00
53619;BME280;68717;53.040;18.488;2023-12-07T00:13:25;101676.25;;;-0.71;100.00
53619;BME280;68717;53.040;18.488;2023-12-07T00:13:38;101678.03;;;-0.71;100.00
53619;BME280;68717;53.040;18.488;2023-12-07T00:13:51;101677.19;;;-0.72;100.00
53619;BME280;68717;53.040;18.488;2023-12-07T00:14:04;101679.81;;;-0.72;100.00
53619;BME280;68717;53.040;18.488;2023-12-07T00:14:18;101677.19;;;-0.72;100.00
53619;BME280;68717;53.040;18.488;2023-12-07T00:14:31;101672.78;;;-0.71;100.00
53619;BME280;68717;53.040;18.488;2023-12-07T00:14:44;101673.63;;;-0.71;100.00
53619;BME280;68717;53.040;18.488;2023-12-07T00:14:57;101673.66;;;-0.72;100.00
53619;BME280;68717;53.040;18.488;2023-12-07T00:15:10;101666.66;;;-0.72;100.00
53619;BME280;68717;53.040;18.488;2023-12-07T00:15:23;101678.00;;;-0.70;100.00
53619;BME280;68717;53.040;18.488;2023-12-07T00:15:36;101676.25;;;-0.71;100.00
53619;BME280;68717;53.040;18.488;2023-12-07T00:15:49;101672.75;;;-0.70;100.00
53619;BME280;68717;53.040;18.488;2023-12-07T00:16:03;101674.47;;;-0.70;100.00
53619;BME280;68717;53.040;18.488;2023-12-07T00:16:16;101670.09;;;-0.70;100.00
53619;BME280;68717;53.040;18.488;2023-12-07T00:16:29;101674.47;;;-0.69;100.00
53619;BME280;68717;53.040;18.488;2023-12-07T00:16:42;101671.81;;;-0.69;100.00
53619;BME280;68717;53.040;18.488;2023-12-07T00:16:55;101671.81;;;-0.69;100.00
53619;BME280;68717;53.040;18.488;2023-12-07T00:17:08;101668.34;;;-0.69;100.00
53619;BME280;68717;53.040;18.488;2023-12-07T00:17:20;101677.09;;;-0.69;100.00
53619;BME280;68717;53.040;18.488;2023-12-07T00:17:33;101672.69;;;-0.68;100.00
53619;BME280;68717;53.040;18.488;2023-12-07T00:17:46;101672.69;;;-0.68;100.00
53619;BME280;68717;53.040;18.488;2023-12-07T00:18:00;101665.66;;;-0.68;100.00
53619;BME280;68717;53.040;18.488;2023-12-07T00:18:15;101672.69;;;-0.68;100.00
53619;BME280;68717;53.040;18.488;2023-12-07T00:18:30;101670.03;;;-0.68;100.00
53619;BME280;68717;53.040;18.488;2023-12-07T00:18:42;101663.06;;;-0.69;100.00
53619;BME280;68717;53.040;18.488;2023-12-07T00:18:55;101673.59;;;-0.69;100.00
53619;BME280;68717;53.040;18.488;2023-12-07T00:19:08;101674.47;;;-0.69;100.00
53619;BME280;68717;53.040;18.488;2023-12-07T00:19:21;101672.75;;;-0.70;100.00
53619;BME280;68717;53.040;18.488;2023-12-07T00:19:34;101670.97;;;-0.69;100.00
53619;BME280;68717;53.040;18.488;2023-12-07T00:19:50;101663.91;;;-0.69;100.00
53619;BME280;68717;53.040;18.488;2023-12-07T00:20:03;101669.19;;;-0.69;100.00
53619;BME280;68717;53.040;18.488;2023-12-07T00:20:18;101665.72;;;-0.71;100.00
53619;BME280;68717;53.040;18.488;2023-12-07T00:20:30;101667.47;;;-0.70;100.00
53619;BME280;68717;53.040;18.488;2023-12-07T00:20:43;101669.22;;;-0.70;100.00
53619;BME280;68717;53.040;18.488;2023-12-07T00:20:59;101677.13;;;-0.70;100.00
53619;BME280;68717;53.040;18.488;2023-12-07T00:21:12;101671.91;;;-0.72;100.00
53619;BME280;68717;53.040;18.488;2023-12-07T00:21:27;101671.09;;;-0.74;100.00
53619;BME280;68717;53.040;18.488;2023-12-07T00:21:40;101665.81;;;-0.74;100.00
53619;BME280;68717;53.040;18.488;2023-12-07T00:21:52;101663.22;;;-0.75;100.00
53619;BME280;68717;53.040;18.488;2023-12-07T00:22:05;101672.03;;;-0.76;100.00
53619;BME280;68717;53.040;18.488;2023-12-07T00:22:19;101668.50;;;-0.77;100.00
53619;BME280;68717;53.040;18.488;2023-12-07T00:22:32;101670.28;;;-0.77;100.00
53619;BME280;68717;53.040;18.488;2023-12-07T00:22:45;101666.78;;;-0.78;100.00
53619;BME280;68717;53.040;18.488;2023-12-07T00:22:58;101667.69;;;-0.79;100.00
53619;BME280;68717;53.040;18.488;2023-12-07T00:23:11;101668.59;;;-0.80;100.00
53619;BME280;68717;53.040;18.488;2023-12-07T00:23:27;101668.59;;;-0.80;100.00
53619;BME280;68717;53.040;18.488;2023-12-07T00:23:40;101670.38;;;-0.80;100.00
53619;BME280;68717;53.040;18.488;2023-12-07T00:23:53;101665.09;;;-0.80;100.00
53619;BME280;68717;53.040;18.488;2023-12-07T00:24:07;101666.84;;;-0.81;100.00
53619;BME280;68717;53.040;18.488;2023-12-07T00:24:20;101666.84;;;-0.81;100.00
53619;BME280;68717;53.040;18.488;2023-12-07T00:24:32;101665.97;;;-0.80;100.00
53619;BME280;68717;53.040;18.488;2023-12-07T00:24:45;101665.09;;;-0.80;100.00
53619;BME280;68717;53.040;18.488;2023-12-07T00:24:58;101668.59;;;-0.80;100.00
53619;BME280;68717;53.040;18.488;2023-12-07T00:25:11;101660.69;;;-0.80;100.00
53619;BME280;68717;53.040;18.488;2023-12-07T00:25:24;101665.97;;;-0.80;100.00
53619;BME280;68717;53.040;18.488;2023-12-07T00:25:39;101672.09;;;-0.79;100.00
53619;BME280;68717;53.040;18.488;2023-12-07T00:25:53;101666.81;;;-0.79;100.00
53619;BME280;68717;53.040;18.488;2023-12-07T00:26:08;101668.56;;;-0.78;100.00
53619;BME280;68717;53.040;18.488;2023-12-07T00:26:22;101665.94;;;-0.78;100.00
53619;BME280;68717;53.040;18.488;2023-12-07T00:26:34;101673.84;;;-0.78;100.00
53619;BME280;68717;53.040;18.488;2023-12-07T00:26:47;101669.44;;;-0.78;100.00
53619;BME280;68717;53.040;18.488;2023-12-07T00:27:00;101664.16;;;-0.78;100.00
53619;BME280;68717;53.040;18.488;2023-12-07T00:27:13;101664.19;;;-0.79;100.00
53619;BME280;68717;53.040;18.488;2023-12-07T00:27:27;101669.44;;;-0.78;100.00
53619;BME280;68717;53.040;18.488;2023-12-07T00:27:39;101668.56;;;-0.78;100.00
53619;BME280;68717;53.040;18.488;2023-12-07T00:27:52;101665.88;;;-0.77;100.00
53619;BME280;68717;53.040;18.488;2023-12-07T00:28:05;101666.78;;;-0.78;100.00
53619;BME280;68717;53.040;18.488;2023-12-07T00:28:18;101669.44;;;-0.78;100.00
53619;BME280;68717;53.040;18.488;2023-12-07T00:28:32;101668.56;;;-0.78;100.00
53619;BME280;68717;53.040;18.488;2023-12-07T00:28:45;101671.22;;;-0.80;100.00
53619;BME280;68717;53.040;18.488;2023-12-07T00:28:57;101673.00;;;-0.80;100.00
53619;BME280;68717;53.040;18.488;2023-12-07T00:29:11;101666.84;;;-0.81;100.00
53619;BME280;68717;53.040;18.488;2023-12-07T00:29:24;101671.22;;;-0.80;100.00
53619;BME280;68717;53.040;18.488;2023-12-07T00:29:37;101672.13;;;-0.81;100.00
53619;BME280;68717;53.040;18.488;2023-12-07T00:29:49;101668.59;;;-0.80;100.00
53619;BME280;68717;53.040;18.488;2023-12-07T00:30:03;101664.22;;;-0.81;100.00
53619;BME280;68717;53.040;18.488;2023-12-07T00:30:16;101675.66;;;-0.82;100.00
53619;BME280;68717;53.040;18.488;2023-12-07T00:30:28;101664.28;;;-0.82;100.00
53619;BME280;68717;53.040;18.488;2023-12-07T00:30:41;101667.78;;;-0.83;100.00
53619;BME280;68717;53.040;18.488;2023-12-07T00:30:55;101666.03;;;-0.83;100.00
53619;BME280;68717;53.040;18.488;2023-12-07T00:31:09;101668.66;;;-0.83;100.00
53619;BME280;68717;53.040;18.488;2023-12-07T00:31:23;101669.56;;;-0.84;100.00
53619;BME280;68717;53.040;18.488;2023-12-07T00:31:35;101665.22;;;-0.85;100.00
53619;BME280;68717;53.040;18.488;2023-12-07T00:31:48;101666.09;;;-0.84;100.00
53619;BME280;68717;53.040;18.488;2023-12-07T00:32:01;101668.72;;;-0.84;100.00
53619;BME280;68717;53.040;18.488;2023-12-07T00:32:14;101665.22;;;-0.85;100.00
53619;BME280;68717;53.040;18.488;2023-12-07T00:32:27;101665.22;;;-0.85;100.00
53619;BME280;68717;53.040;18.488;2023-12-07T00:32:40;101660.75;;;-0.83;100.00
53619;BME280;68717;53.040;18.488;2023-12-07T00:32:55;101665.13;;;-0.82;100.00
53619;BME280;68717;53.040;18.488;2023-12-07T00:33:09;101668.66;;;-0.83;100.00
53619;BME280;68717;53.040;18.488;2023-12-07T00:33:22;101666.91;;;-0.82;100.00
53619;BME280;68717;53.040;18.488;2023-12-07T00:33:36;101663.38;;;-0.83;100.00
53619;BME280;68717;53.040;18.488;2023-12-07T00:33:49;101668.66;;;-0.83;100.00
53619;BME280;68717;53.040;18.488;2023-12-07T00:34:02;101668.63;;;-0.81;100.00
53619;BME280;68717;53.040;18.488;2023-12-07T00:34:15;101660.75;;;-0.83;100.00
53619;BME280;68717;53.040;18.488;2023-12-07T00:34:29;101663.34;;;-0.81;100.00
53619;BME280;68717;53.040;18.488;2023-12-07T00:34:42;101666.84;;;-0.81;100.00
53619;BME280;68717;53.040;18.488;2023-12-07T00:34:55;101660.72;;;-0.81;100.00
53619;BME280;68717;53.040;18.488;2023-12-07T00:35:08;101670.38;;;-0.80;100.00
53619;BME280;68717;53.040;18.488;2023-12-07T00:35:21;101669.47;;;-0.81;100.00
53619;BME280;68717;53.040;18.488;2023-12-07T00:35:34;101673.88;;;-0.81;100.00
53619;BME280;68717;53.040;18.488;2023-12-07T00:35:48;101674.75;;;-0.81;100.00
53619;BME280;68717;53.040;18.488;2023-12-07T00:36:01;101666.03;;;-0.83;100.00
53619;BME280;68717;53.040;18.488;2023-12-07T00:36:19;101671.28;;;-0.83;100.00
53619;BME280;68717;53.040;18.488;2023-12-07T00:36:32;101673.03;;;-0.82;100.00
53619;BME280;68717;53.040;18.488;2023-12-07T00:36:44;101670.41;;;-0.82;100.00
53619;BME280;68717;53.040;18.488;2023-12-07T00:36:57;101670.41;;;-0.82;100.00
53619;BME280;68717;53.040;18.488;2023-12-07T00:37:10;101673.91;;;-0.83;100.00
53619;BME280;68717;53.040;18.488;2023-12-07T00:37:22;101673.03;;;-0.82;100.00
53619;BME280;68717;53.040;18.488;2023-12-07T00:37:35;101666.03;;;-0.83;100.00
53619;BME280;68717;53.040;18.488;2023-12-07T00:37:48;101668.66;;;-0.83;100.00
53619;BME280;68717;53.040;18.488;2023-12-07T00:38:01;101667.84;;;-0.85;100.00
53619;BME280;68717;53.040;18.488;2023-12-07T00:38:14;101670.50;;;-0.85;100.00
53619;BME280;68717;53.040;18.488;2023-12-07T00:38:28;101675.75;;;-0.85;100.00
53619;BME280;68717;53.040;18.488;2023-12-07T00:38:40;101672.22;;;-0.86;100.00
53619;BME280;68717;53.040;18.488;2023-12-07T00:38:54;101666.09;;;-0.86;100.00
53619;BME280;68717;53.040;18.488;2023-12-07T00:39:07;101671.34;;;-0.84;100.00
53619;BME280;68717;53.040;18.488;2023-12-07T00:39:21;101672.22;;;-0.86;100.00
53619;BME280;68717;53.040;18.488;2023-12-07T00:39:34;101671.34;;;-0.84;100.00
53619;BME280;68717;53.040;18.488;2023-12-07T00:39:47;101676.59;;;-0.84;100.00
53619;BME280;68717;53.040;18.488;2023-12-07T00:40:00;101673.97;;;-0.84;100.00
53619;BME280;68717;53.040;18.488;2023-12-07T00:40:13;101666.94;;;-0.84;100.00
53619;BME280;68717;53.040;18.488;2023-12-07T00:40:28;101671.34;;;-0.84;100.00
53619;BME280;68717;53.040;18.488;2023-12-07T00:40:40;101670.50;;;-0.85;100.00
53619;BME280;68717;53.040;18.488;2023-12-07T00:40:53;101675.69;;;-0.83;100.00
53619;BME280;68717;53.040;18.488;2023-12-07T00:41:06;101668.72;;;-0.84;100.00
53619;BME280;68717;53.040;18.488;2023-12-07T00:41:19;101672.19;;;-0.84;100.00
53619;BME280;68717;53.040;18.488;2023-12-07T00:41:32;101679.19;;;-0.83;100.00
53619;BME280;68717;53.040;18.488;2023-12-07T00:41:45;101673.91;;;-0.83;100.00
53619;BME280;68717;53.040;18.488;2023-12-07T00:41:59;101673.91;;;-0.83;100.00
53619;BME280;68717;53.040;18.488;2023-12-07T00:42:12;101671.28;;;-0.83;100.00
53619;BME280;68717;53.040;18.488;2023-12-07T00:42:26;101673.03;;;-0.82;100.00
53619;BME280;68717;53.040;18.488;2023-12-07T00:42:38;101674.75;;;-0.81;100.00
53619;BME280;68717;53.040;18.488;2023-12-07T00:42:51;101677.38;;;-0.81;100.00
53619;BME280;68717;53.040;18.488;2023-12-07T00:43:05;101669.47;;;-0.81;100.00
53619;BME280;68717;53.040;18.488;2023-12-07T00:43:18;101677.38;;;-0.81;100.00
53619;BME280;68717;53.040;18.488;2023-12-07T00:43:30;101670.38;;;-0.80;100.00
53619;BME280;68717;53.040;18.488;2023-12-07T00:43:43;101673.84;;;-0.80;100.00
53619;BME280;68717;53.040;18.488;2023-12-07T00:43:56;101674.72;;;-0.79;100.00
53619;BME280;68717;53.040;18.488;2023-12-07T00:44:09;101672.94;;;-0.79;100.00
53619;BME280;68717;53.040;18.488;2023-12-07T00:44:21;101673.78;;;-0.77;100.00
53619;BME280;68717;53.040;18.488;2023-12-07T00:44:39;101667.66;;;-0.77;100.00
53619;BME280;68717;53.040;18.488;2023-12-07T00:44:52;101674.69;;;-0.78;100.00
53619;BME280;68717;53.040;18.488;2023-12-07T00:45:05;101674.69;;;-0.78;100.00
53619;BME280;68717;53.040;18.488;2023-12-07T00:45:18;101673.84;;;-0.78;100.00
53619;BME280;68717;53.040;18.488;2023-12-07T00:45:30;101673.78;;;-0.77;100.00
53619;BME280;68717;53.040;18.488;2023-12-07T00:45:43;101679.94;;;-0.76;100.00
53619;BME280;68717;53.040;18.488;2023-12-07T00:45:56;101676.41;;;-0.77;100.00
53619;BME280;68717;53.040;18.488;2023-12-07T00:46:12;101672.91;;;-0.77;100.00
53619;BME280;68717;53.040;18.488;2023-12-07T00:46:26;101669.44;;;-0.78;100.00
53619;BME280;68717;53.040;18.488;2023-12-07T00:46:38;101679.03;;;-0.77;100.00
53619;BME280;68717;53.040;18.488;2023-12-07T00:46:52;101672.06;;;-0.78;100.00
53619;BME280;68717;53.040;18.488;2023-12-07T00:47:04;101672.94;;;-0.79;100.00
53619;BME280;68717;53.040;18.488;2023-12-07T00:47:17;101671.22;;;-0.80;100.00
53619;BME280;68717;53.040;18.488;2023-12-07T00:47:30;101671.22;;;-0.80;100.00
53619;BME280;68717;53.040;18.488;2023-12-07T00:47:43;101675.63;;;-0.80;100.00
53619;BME280;68717;53.040;18.488;2023-12-07T00:47:56;101673.03;;;-0.82;100.00
53619;BME280;68717;53.040;18.488;2023-12-07T00:48:08;101678.28;;;-0.82;100.00
53619;BME280;68717;53.040;18.488;2023-12-07T00:48:21;101674.75;;;-0.81;100.00
53619;BME280;68717;53.040;18.488;2023-12-07T00:48:36;101677.44;;;-0.82;100.00
53619;BME280;68717;53.040;18.488;2023-12-07T00:48:49;101674.75;;;-0.81;100.00
53619;BME280;68717;53.040;18.488;2023-12-07T00:49:02;101673.03;;;-0.82;100.00
53619;BME280;68717;53.040;18.488;2023-12-07T00:49:15;101675.69;;;-0.83;100.00
53619;BME280;68717;53.040;18.488;2023-12-07T00:49:27;101678.31;;;-0.83;100.00
53619;BME280;68717;53.040;18.488;2023-12-07T00:49:42;101666.94;;;-0.84;100.00
53619;BME280;68717;53.040;18.488;2023-12-07T00:49:55;101675.69;;;-0.83;100.00
53619;BME280;68717;53.040;18.488;2023-12-07T00:50:11;101682.72;;;-0.84;100.00
53619;BME280;68717;53.040;18.488;2023-12-07T00:50:24;101680.09;;;-0.84;100.00
53619;BME280;68717;53.040;18.488;2023-12-07T00:50:38;101679.25;;;-0.84;100.00
53619;BME280;68717;53.040;18.488;2023-12-07T00:50:51;101675.75;;;-0.85;100.00
53619;BME280;68717;53.040;18.488;2023-12-07T00:51:04;101677.50;;;-0.86;100.00
53619;BME280;68717;53.040;18.488;2023-12-07T00:51:18;101672.22;;;-0.86;100.00
53619;BME280;68717;53.040;18.488;2023-12-07T00:51:31;101678.38;;;-0.85;100.00
53619;BME280;68717;53.040;18.488;2023-12-07T00:51:44;101678.38;;;-0.85;100.00
53619;BME280;68717;53.040;18.488;2023-12-07T00:51:56;101674.84;;;-0.86;100.00
53619;BME280;68717;53.040;18.488;2023-12-07T00:52:09;101673.16;;;-0.87;100.00
53619;BME280;68717;53.040;18.488;2023-12-07T00:52:22;101677.50;;;-0.86;100.00
53619;BME280;68717;53.040;18.488;2023-12-07T00:52:36;101678.38;;;-0.85;100.00
53619;BME280;68717;53.040;18.488;2023-12-07T00:52:51;101679.28;;;-0.86;100.00
53619;BME280;68717;53.040;18.488;2023-12-07T00:53:04;101681.88;;;-0.84;100.00
53619;BME280;68717;53.040;18.488;2023-12-07T00:53:17;101679.25;;;-0.84;100.00
53619;BME280;68717;53.040;18.488;2023-12-07T00:53:30;101680.09;;;-0.84;100.00
53619;BME280;68717;53.040;18.488;2023-12-07T00:53:42;101678.38;;;-0.85;100.00
53619;BME280;68717;53.040;18.488;2023-12-07T00:53:55;101681.88;;;-0.84;100.00
53619;BME280;68717;53.040;18.488;2023-12-07T00:54:08;101678.28;;;-0.82;100.00
53619;BME280;68717;53.040;18.488;2023-12-07T00:54:22;101676.56;;;-0.83;100.00
53619;BME280;68717;53.040;18.488;2023-12-07T00:54:35;101684.44;;;-0.83;100.00
53619;BME280;68717;53.040;18.488;2023-12-07T00:54:47;101676.56;;;-0.83;100.00
53619;BME280;68717;53.040;18.488;2023-12-07T00:55:00;101673.03;;;-0.82;100.00
53619;BME280;68717;53.040;18.488;2023-12-07T00:55:23;101676.56;;;-0.83;100.00
53619;BME280;68717;53.040;18.488;2023-12-07T00:55:36;101678.31;;;-0.83;100.00
53619;BME280;68717;53.040;18.488;2023-12-07T00:55:49;101681.81;;;-0.83;100.00
53619;BME280;68717;53.040;18.488;2023-12-07T00:56:03;101678.31;;;-0.83;100.00
53619;BME280;68717;53.040;18.488;2023-12-07T00:56:16;101681.81;;;-0.83;100.00
53619;BME280;68717;53.040;18.488;2023-12-07T00:56:29;101676.56;;;-0.83;100.00
53619;BME280;68717;53.040;18.488;2023-12-07T00:56:42;101680.94;;;-0.82;100.00
53619;BME280;68717;53.040;18.488;2023-12-07T00:56:55;101679.19;;;-0.83;100.00
53619;BME280;68717;53.040;18.488;2023-12-07T00:57:07;101681.81;;;-0.83;100.00
53619;BME280;68717;53.040;18.488;2023-12-07T00:57:20;101673.03;;;-0.82;100.00
53619;BME280;68717;53.040;18.488;2023-12-07T00:57:33;101684.44;;;-0.83;100.00
53619;BME280;68717;53.040;18.488;2023-12-07T00:57:46;101680.94;;;-0.82;100.00
53619;BME280;68717;53.040;18.488;2023-12-07T00:57:58;101680.94;;;-0.82;100.00
53619;BME280;68717;53.040;18.488;2023-12-07T00:58:14;101684.41;;;-0.81;100.00
53619;BME280;68717;53.040;18.488;2023-12-07T00:58:26;101684.41;;;-0.81;100.00
53619;BME280;68717;53.040;18.488;2023-12-07T00:58:39;101679.19;;;-0.83;100.00
53619;BME280;68717;53.040;18.488;2023-12-07T00:58:52;101675.69;;;-0.83;100.00
53619;BME280;68717;53.040;18.488;2023-12-07T00:59:05;101679.19;;;-0.83;100.00
53619;BME280;68717;53.040;18.488;2023-12-07T00:59:17;101676.56;;;-0.83;100.00
53619;BME280;68717;53.040;18.488;2023-12-07T00:59:30;101683.56;;;-0.82;100.00
53619;BME280;68717;53.040;18.488;2023-12-07T00:59:46;101680.94;;;-0.82;100.00
53619;BME280;68717;53.040;18.488;2023-12-07T00:59:59;101683.56;;;-0.82;100.00
53619;BME280;68717;53.040;18.488;2023-12-07T01:00:12;101687.97;;;-0.82;100.00
53619;BME280;68717;53.040;18.488;2023-12-07T01:00:26;101688.81;;;-0.82;100.00
53619;BME280;68717;53.040;18.488;2023-12-07T01:00:39;101682.72;;;-0.82;100.00
53619;BME280;68717;53.040;18.488;2023-12-07T01:00:51;101680.94;;;-0.82;100.00
53619;BME280;68717;53.040;18.488;2023-12-07T01:01:04;101685.34;;;-0.82;100.00
53619;BME280;68717;53.040;18.488;2023-12-07T01:01:17;101682.72;;;-0.82;100.00
53619;BME280;68717;53.040;18.488;2023-12-07T01:01:30;101684.44;;;-0.83;100.00
53619;BME280;68717;53.040;18.488;2023-12-07T01:01:43;101680.06;;;-0.82;100.00
53619;BME280;68717;53.040;18.488;2023-12-07T01:01:56;101682.72;;;-0.82;100.00
53619;BME280;68717;53.040;18.488;2023-12-07T01:02:10;101682.72;;;-0.82;100.00
53619;BME280;68717;53.040;18.488;2023-12-07T01:02:23;101683.56;;;-0.82;100.00
53619;BME280;68717;53.040;18.488;2023-12-07T01:02:36;101684.41;;;-0.81;100.00
53619;BME280;68717;53.040;18.488;2023-12-07T01:02:48;101682.66;;;-0.81;100.00
53619;BME280;68717;53.040;18.488;2023-12-07T01:03:01;101680.91;;;-0.80;100.00
53619;BME280;68717;53.040;18.488;2023-12-07T01:03:14;101684.38;;;-0.80;100.00
53619;BME280;68717;53.040;18.488;2023-12-07T01:03:27;101674.75;;;-0.81;100.00
53619;BME280;68717;53.040;18.488;2023-12-07T01:03:42;101684.38;;;-0.80;100.00
53619;BME280;68717;53.040;18.488;2023-12-07T01:03:55;101682.63;;;-0.79;100.00
53619;BME280;68717;53.040;18.488;2023-12-07T01:04:08;101688.75;;;-0.79;100.00
53619;BME280;68717;53.040;18.488;2023-12-07T01:04:21;101683.47;;;-0.79;100.00
53619;BME280;68717;53.040;18.488;2023-12-07T01:04:34;101690.50;;;-0.78;100.00
53619;BME280;68717;53.040;18.488;2023-12-07T01:04:47;101687.84;;;-0.78;100.00
53619;BME280;68717;53.040;18.488;2023-12-07T01:05:00;101683.47;;;-0.79;100.00
53619;BME280;68717;53.040;18.488;2023-12-07T01:05:13;101685.22;;;-0.78;100.00
53619;BME280;68717;53.040;18.488;2023-12-07T01:05:25;101686.94;;;-0.77;100.00
53619;BME280;68717;53.040;18.488;2023-12-07T01:05:39;101686.94;;;-0.77;100.00
53619;BME280;68717;53.040;18.488;2023-12-07T01:05:53;101686.94;;;-0.77;100.00
53619;BME280;68717;53.040;18.488;2023-12-07T01:06:07;101688.69;;;-0.76;100.00
53619;BME280;68717;53.040;18.488;2023-12-07T01:06:22;101686.91;;;-0.75;100.00
53619;BME280;68717;53.040;18.488;2023-12-07T01:06:37;101686.00;;;-0.74;100.00
53619;BME280;68717;53.040;18.488;2023-12-07T01:06:50;101688.59;;;-0.73;100.00
53619;BME280;68717;53.040;18.488;2023-12-07T01:07:03;101692.97;;;-0.72;100.00
53619;BME280;68717;53.040;18.488;2023-12-07T01:07:16;101690.34;;;-0.72;100.00
53619;BME280;68717;53.040;18.488;2023-12-07T01:07:30;101692.97;;;-0.72;100.00
53619;BME280;68717;53.040;18.488;2023-12-07T01:07:43;101686.81;;;-0.72;100.00
53619;BME280;68717;53.040;18.488;2023-12-07T01:07:56;101690.34;;;-0.72;100.00
53619;BME280;68717;53.040;18.488;2023-12-07T01:08:09;101692.06;;;-0.71;100.00
53619;BME280;68717;53.040;18.488;2023-12-07T01:08:21;101685.06;;;-0.72;100.00